createdAt,value
2022-12-31T00:01:27.536Z,35.60
2022-12-31T00:03:56.050Z,31.43
2022-12-31T00:06:25.106Z,36.70
2022-12-31T00:08:54.139Z,36.60
2022-12-31T00:11:22.768Z,34.87
2022-12-31T00:13:50.677Z,33.40
2022-12-31T00:16:30.227Z,37.47
2022-12-31T00:18:59.363Z,37.23
2022-12-31T00:21:28.151Z,34.80
2022-12-31T00:23:56.001Z,35.17
2022-12-31T00:26:25.617Z,36.77
2022-12-31T00:28:55.214Z,34.70
2022-12-31T00:31:25.490Z,36.10
2022-12-31T00:33:52.755Z,37.97
2022-12-31T00:36:25.070Z,36.57
2022-12-31T00:38:54.415Z,38.70
2022-12-31T00:41:22.401Z,35.23
2022-12-31T00:43:49.840Z,40.67
2022-12-31T00:46:17.241Z,38.47
2022-12-31T00:48:44.389Z,36.93
2022-12-31T00:51:13.671Z,36.70
2022-12-31T00:53:41.531Z,33.43
2022-12-31T00:56:11.924Z,37.93
2022-12-31T00:58:39.422Z,35.13
2022-12-31T01:01:10.854Z,34.53
2022-12-31T01:03:38.571Z,35.03
2022-12-31T01:06:05.735Z,32.77
2022-12-31T01:08:33.130Z,34.43
2022-12-31T01:11:19.646Z,33.83
2022-12-31T01:13:47.198Z,31.80
2022-12-31T01:16:15.195Z,34.33
2022-12-31T01:18:42.813Z,32.07
2022-12-31T01:21:11.749Z,31.67
2022-12-31T01:23:39.252Z,29.13
2022-12-31T01:26:08.006Z,30.37
2022-12-31T01:28:35.322Z,30.73
2022-12-31T01:31:07.164Z,27.87
2022-12-31T01:33:34.431Z,30.33
2022-12-31T01:36:03.396Z,28.50
2022-12-31T01:38:30.543Z,30.07
2022-12-31T01:40:57.565Z,29.43
2022-12-31T01:43:40.835Z,27.23
2022-12-31T01:46:08.445Z,29.57
2022-12-31T01:48:35.553Z,27.93
2022-12-31T01:51:02.406Z,27.77
2022-12-31T01:53:29.462Z,26.47
2022-12-31T01:55:59.375Z,31.37
2022-12-31T01:58:36.677Z,28.43
2022-12-31T02:01:04.907Z,26.87
2022-12-31T02:03:32.228Z,25.03
2022-12-31T02:06:10.787Z,26.57
2022-12-31T02:08:41.934Z,28.57
2022-12-31T02:11:32.980Z,23.10
2022-12-31T02:14:05.886Z,28.10
2022-12-31T02:16:42.306Z,21.73
2022-12-31T02:19:46.439Z,26.67
2022-12-31T02:22:37.706Z,20.53
2022-12-31T02:25:42.336Z,22.30
2022-12-31T02:28:25.523Z,23.10
2022-12-31T02:31:01.607Z,21.63
2022-12-31T02:33:41.004Z,22.27
2022-12-31T02:36:23.976Z,20.73
2022-12-31T02:38:52.665Z,21.50
2022-12-31T02:41:39.524Z,20.07
2022-12-31T02:44:23.911Z,21.93
2022-12-31T02:47:09.490Z,23.77
2022-12-31T02:49:48.125Z,19.13
2022-12-31T02:52:33.128Z,24.03
2022-12-31T02:55:11.113Z,20.27
2022-12-31T02:57:53.234Z,23.60
2022-12-31T03:00:39.322Z,20.13
2022-12-31T03:03:07.983Z,21.43
2022-12-31T03:05:40.260Z,20.90
2022-12-31T03:08:08.532Z,22.93
2022-12-31T03:10:35.673Z,22.13
2022-12-31T03:13:03.061Z,20.03
2022-12-31T03:15:32.488Z,19.20
2022-12-31T03:18:02.209Z,18.90
2022-12-31T03:20:54.775Z,19.40
2022-12-31T03:23:26.200Z,23.13
2022-12-31T03:25:53.578Z,18.90
2022-12-31T03:28:24.576Z,19.67
2022-12-31T03:30:55.279Z,18.23
2022-12-31T03:33:23.458Z,23.60
2022-12-31T03:35:51.332Z,20.47
2022-12-31T03:38:19.308Z,21.63
2022-12-31T03:40:50.662Z,20.90
2022-12-31T03:43:19.538Z,19.33
2022-12-31T03:45:52.524Z,21.50
2022-12-31T03:48:21.643Z,20.33
2022-12-31T03:50:48.487Z,19.13
2022-12-31T03:53:15.953Z,17.07
2022-12-31T03:55:42.789Z,18.27
2022-12-31T03:58:09.780Z,16.73
2022-12-31T04:00:36.559Z,17.33
2022-12-31T04:03:03.795Z,18.80
2022-12-31T04:05:31.324Z,18.53
2022-12-31T04:07:58.467Z,18.60
2022-12-31T04:10:25.209Z,17.20
2022-12-31T04:12:52.243Z,16.40
2022-12-31T04:15:20.887Z,18.97
2022-12-31T04:17:48.671Z,17.17
2022-12-31T04:20:16.317Z,20.13
2022-12-31T04:22:44.192Z,17.50
2022-12-31T04:25:11.603Z,18.83
2022-12-31T04:27:40.579Z,18.60
2022-12-31T04:30:10.563Z,19.40
2022-12-31T04:32:37.713Z,15.63
2022-12-31T04:35:04.945Z,20.70
2022-12-31T04:37:31.942Z,15.93
2022-12-31T04:40:03.685Z,17.60
2022-12-31T04:42:33.303Z,16.53
2022-12-31T04:45:00.040Z,16.73
2022-12-31T04:47:27.074Z,15.53
2022-12-31T04:49:53.805Z,14.53
2022-12-31T04:52:20.970Z,17.67
2022-12-31T04:54:47.679Z,12.20
2022-12-31T04:57:14.789Z,13.00
2022-12-31T04:59:41.579Z,14.10
2022-12-31T05:02:08.795Z,13.63
2022-12-31T05:04:35.988Z,15.90
2022-12-31T05:07:03.166Z,13.93
2022-12-31T05:09:30.994Z,13.73
2022-12-31T05:11:58.049Z,13.20
2022-12-31T05:14:25.268Z,16.63
2022-12-31T05:16:53.879Z,12.93
2022-12-31T05:19:20.866Z,13.10
2022-12-31T05:22:07.936Z,13.73
2022-12-31T05:24:34.742Z,12.97
2022-12-31T05:27:02.121Z,14.27
2022-12-31T05:29:28.924Z,12.40
2022-12-31T05:31:55.865Z,15.00
2022-12-31T05:34:22.685Z,11.63
2022-12-31T05:36:49.742Z,12.40
2022-12-31T05:39:16.484Z,12.60
2022-12-31T05:41:43.553Z,14.50
2022-12-31T05:44:10.829Z,14.63
2022-12-31T05:46:37.894Z,13.80
2022-12-31T05:49:04.981Z,12.40
2022-12-31T05:51:32.238Z,11.80
2022-12-31T05:53:59.134Z,14.97
2022-12-31T05:56:26.180Z,14.40
2022-12-31T05:58:52.952Z,12.43
2022-12-31T06:01:20.109Z,12.30
2022-12-31T06:03:47.135Z,11.57
2022-12-31T06:06:14.204Z,11.73
2022-12-31T06:08:41.083Z,13.33
2022-12-31T06:11:08.153Z,12.10
2022-12-31T06:13:34.904Z,11.30
2022-12-31T06:16:06.756Z,12.70
2022-12-31T06:18:33.628Z,10.70
2022-12-31T06:21:00.819Z,11.30
2022-12-31T06:23:27.751Z,11.27
2022-12-31T06:25:54.793Z,13.30
2022-12-31T06:28:21.785Z,13.47
2022-12-31T06:30:49.039Z,11.17
2022-12-31T06:33:15.775Z,8.73
2022-12-31T06:35:42.796Z,10.77
2022-12-31T06:38:09.617Z,10.63
2022-12-31T06:40:37.657Z,12.27
2022-12-31T06:43:05.815Z,10.83
2022-12-31T06:45:32.840Z,10.10
2022-12-31T06:47:59.652Z,10.67
2022-12-31T06:50:26.696Z,11.43
2022-12-31T06:52:53.743Z,10.70
2022-12-31T06:55:21.074Z,10.27
2022-12-31T06:57:48.421Z,10.30
2022-12-31T07:00:16.242Z,8.30
2022-12-31T07:03:10.866Z,11.20
2022-12-31T07:06:02.186Z,9.87
2022-12-31T07:08:59.183Z,13.10
2022-12-31T07:11:35.562Z,9.13
2022-12-31T07:14:22.210Z,11.03
2022-12-31T07:17:00.385Z,10.47
2022-12-31T07:20:08.752Z,18.77
2022-12-31T07:22:36.031Z,9.37
2022-12-31T07:25:03.345Z,12.07
2022-12-31T07:28:04.524Z,11.83
2022-12-31T07:30:59.608Z,12.30
2022-12-31T07:33:59.700Z,11.30
2022-12-31T07:36:29.532Z,10.40
2022-12-31T07:39:11.736Z,9.83
2022-12-31T07:41:47.114Z,12.53
2022-12-31T07:44:26.210Z,9.77
2022-12-31T07:46:59.339Z,11.60
2022-12-31T07:49:29.174Z,8.63
2022-12-31T07:51:56.772Z,13.97
2022-12-31T07:54:23.810Z,10.13
2022-12-31T07:56:51.591Z,11.73
2022-12-31T07:59:45.967Z,13.40
2022-12-31T08:02:39.805Z,11.63
2022-12-31T08:05:31.117Z,12.77
2022-12-31T08:08:17.768Z,12.40
2022-12-31T08:11:02.782Z,11.53
2022-12-31T08:13:30.085Z,11.83
2022-12-31T08:15:57.405Z,12.23
2022-12-31T08:18:24.373Z,11.20
2022-12-31T08:21:10.131Z,11.30
2022-12-31T08:23:51.886Z,10.53
2022-12-31T08:26:31.342Z,9.57
2022-12-31T08:29:13.118Z,10.60
2022-12-31T08:31:54.633Z,8.47
2022-12-31T08:34:34.351Z,9.40
2022-12-31T08:37:15.258Z,16.53
2022-12-31T08:40:19.144Z,11.03
2022-12-31T08:42:52.065Z,8.83
2022-12-31T08:45:37.825Z,11.20
2022-12-31T08:48:25.664Z,9.47
2022-12-31T08:50:53.367Z,9.80
2022-12-31T08:53:20.874Z,8.63
2022-12-31T08:55:53.163Z,21.63
2022-12-31T08:58:32.255Z,15.70
2022-12-31T09:00:59.568Z,14.30
2022-12-31T09:03:42.095Z,13.73
2022-12-31T09:06:26.097Z,11.70
2022-12-31T09:09:17.544Z,10.97
2022-12-31T09:12:08.973Z,12.53
2022-12-31T09:14:55.441Z,14.67
2022-12-31T09:17:44.151Z,13.07
2022-12-31T09:20:45.229Z,12.53
2022-12-31T09:23:13.206Z,10.73
2022-12-31T09:25:51.764Z,8.20
2022-12-31T09:28:25.996Z,10.70
2022-12-31T09:31:14.794Z,9.57
2022-12-31T09:33:52.816Z,10.90
2022-12-31T09:36:43.535Z,10.07
2022-12-31T09:39:19.609Z,8.93
2022-12-31T09:41:49.455Z,10.77
2022-12-31T09:44:34.293Z,10.70
2022-12-31T09:47:11.150Z,8.90
2022-12-31T09:49:56.690Z,10.37
2022-12-31T09:52:47.406Z,13.97
2022-12-31T09:55:33.208Z,10.40
2022-12-31T09:58:24.830Z,10.97
2022-12-31T10:01:19.718Z,13.23
2022-12-31T10:04:08.012Z,12.30
2022-12-31T10:06:57.997Z,13.57
2022-12-31T10:10:00.694Z,13.90
2022-12-31T10:12:41.771Z,12.97
2022-12-31T10:15:11.875Z,14.13
2022-12-31T10:18:16.011Z,10.93
2022-12-31T10:20:56.179Z,10.27
2022-12-31T10:23:41.072Z,9.97
2022-12-31T10:26:19.202Z,14.47
2022-12-31T10:28:59.645Z,11.20
2022-12-31T10:31:48.713Z,10.50
2022-12-31T10:34:17.337Z,8.47
2022-12-31T10:37:10.346Z,11.67
2022-12-31T10:39:43.768Z,11.10
2022-12-31T10:42:29.629Z,10.83
2022-12-31T10:45:32.269Z,11.43
2022-12-31T10:48:36.380Z,8.77
2022-12-31T10:51:43.835Z,9.90
2022-12-31T10:54:16.945Z,11.07
2022-12-31T10:56:53.987Z,10.13
2022-12-31T10:59:54.145Z,8.20
2022-12-31T11:03:01.716Z,7.77
2022-12-31T11:06:08.122Z,8.97
2022-12-31T11:09:03.594Z,9.43
2022-12-31T11:12:28.825Z,7.00
2022-12-31T11:15:04.308Z,9.50
2022-12-31T11:17:46.832Z,9.57
2022-12-31T11:20:51.951Z,7.53
2022-12-31T11:23:40.010Z,8.93
2022-12-31T11:26:21.738Z,9.20
2022-12-31T11:29:03.034Z,7.00
2022-12-31T11:31:53.797Z,6.97
2022-12-31T11:34:38.732Z,8.43
2022-12-31T11:37:30.454Z,8.27
2022-12-31T11:40:06.253Z,6.80
2022-12-31T11:42:58.659Z,5.97
2022-12-31T11:45:45.657Z,6.73
2022-12-31T11:48:32.529Z,8.47
2022-12-31T11:51:25.363Z,7.13
2022-12-31T11:54:03.877Z,8.17
2022-12-31T11:56:41.174Z,9.50
2022-12-31T11:59:19.284Z,6.43
2022-12-31T12:01:59.743Z,7.43
2022-12-31T12:04:26.663Z,6.60
2022-12-31T12:06:53.666Z,7.57
2022-12-31T12:09:32.119Z,6.17
2022-12-31T12:12:02.008Z,8.30
2022-12-31T12:14:39.082Z,5.93
2022-12-31T12:17:22.316Z,6.97
2022-12-31T12:19:55.023Z,5.63
2022-12-31T12:22:27.193Z,9.13
2022-12-31T12:24:57.018Z,5.07
2022-12-31T12:27:28.913Z,5.00
2022-12-31T12:29:55.670Z,5.47
2022-12-31T12:32:25.765Z,4.50
2022-12-31T12:34:53.098Z,6.17
2022-12-31T12:37:36.386Z,5.63
2022-12-31T12:40:29.859Z,5.20
2022-12-31T12:43:01.543Z,5.20
2022-12-31T12:45:52.134Z,5.97
2022-12-31T12:48:29.455Z,7.00
2022-12-31T12:50:56.444Z,6.53
2022-12-31T12:53:29.573Z,6.73
2022-12-31T12:55:59.930Z,3.88
2022-12-31T12:58:49.379Z,4.30
2022-12-31T13:01:25.285Z,6.20
2022-12-31T13:04:35.024Z,5.90
2022-12-31T13:07:18.792Z,6.10
2022-12-31T13:10:17.592Z,6.47
2022-12-31T13:15:58.127Z,6.85
2022-12-31T13:18:48.945Z,4.53
2022-12-31T13:21:31.733Z,3.97
2022-12-31T13:24:40.373Z,4.57
2022-12-31T13:27:13.820Z,4.78
2022-12-31T13:29:44.261Z,5.53
2022-12-31T13:32:18.758Z,7.43
2022-12-31T13:34:49.708Z,3.70
2022-12-31T13:37:36.528Z,4.30
2022-12-31T13:40:18.102Z,4.57
2022-12-31T13:43:16.751Z,6.70
2022-12-31T13:45:47.568Z,4.30
2022-12-31T13:48:22.793Z,5.10
2022-12-31T13:51:01.530Z,4.47
2022-12-31T13:53:48.982Z,6.13
2022-12-31T13:56:23.933Z,4.13
2022-12-31T13:59:01.504Z,4.45
2022-12-31T14:01:34.412Z,5.15
2022-12-31T14:04:07.690Z,6.53
2022-12-31T14:06:43.876Z,5.50
2022-12-31T14:09:19.645Z,4.95
2022-12-31T14:12:04.789Z,6.28
2022-12-31T14:14:58.284Z,6.07
2022-12-31T14:17:59.260Z,6.10
2022-12-31T14:20:33.777Z,6.47
2022-12-31T14:23:10.275Z,6.38
2022-12-31T14:25:51.855Z,8.20
2022-12-31T14:28:26.502Z,6.97
2022-12-31T14:31:04.070Z,7.90
2022-12-31T14:33:53.776Z,6.55
2022-12-31T14:36:32.792Z,7.15
2022-12-31T14:39:27.718Z,7.30
2022-12-31T14:41:54.724Z,6.60
2022-12-31T14:44:42.697Z,6.97
2022-12-31T14:47:42.116Z,6.20
2022-12-31T14:50:17.406Z,5.97
2022-12-31T14:52:58.796Z,6.60
2022-12-31T14:55:29.851Z,5.53
2022-12-31T14:58:27.337Z,7.85
2022-12-31T15:00:58.083Z,6.20
2022-12-31T15:03:33.652Z,9.05
2022-12-31T15:06:37.598Z,7.07
2022-12-31T15:09:35.016Z,7.35
2022-12-31T15:12:26.726Z,6.38
2022-12-31T15:15:02.789Z,11.30
2022-12-31T15:17:35.662Z,9.05
2022-12-31T15:20:17.561Z,7.13
2022-12-31T15:22:47.938Z,7.30
2022-12-31T15:25:36.975Z,6.53
2022-12-31T15:28:38.127Z,7.25
2022-12-31T15:31:19.908Z,5.45
2022-12-31T15:34:06.881Z,6.00
2022-12-31T15:36:38.669Z,6.70
2022-12-31T15:39:11.127Z,5.30
2022-12-31T15:42:10.306Z,7.30
2022-12-31T15:44:56.641Z,6.78
2022-12-31T15:47:41.566Z,5.75
2022-12-31T15:50:17.146Z,5.97
2022-12-31T15:52:55.053Z,5.93
2022-12-31T15:55:32.723Z,7.78
2022-12-31T15:58:05.343Z,8.57
2022-12-31T16:00:50.485Z,6.10
2022-12-31T16:03:24.167Z,7.07
2022-12-31T16:05:54.427Z,7.15
2022-12-31T16:08:24.652Z,11.98
2022-12-31T16:10:54.551Z,5.80
2022-12-31T16:13:23.974Z,9.02
2022-12-31T16:16:03.399Z,9.52
2022-12-31T16:18:41.983Z,7.43
2022-12-31T16:21:34.756Z,5.40
2022-12-31T16:24:07.624Z,9.77
2022-12-31T16:26:45.927Z,6.97
2022-12-31T16:29:18.565Z,10.40
2022-12-31T16:31:46.972Z,9.87
2022-12-31T16:34:21.943Z,7.35
2022-12-31T16:36:59.947Z,8.60
2022-12-31T16:39:52.908Z,9.67
2022-12-31T16:42:21.485Z,6.13
2022-12-31T16:44:50.948Z,8.90
2022-12-31T16:47:33.683Z,8.75
2022-12-31T16:50:13.319Z,7.35
2022-12-31T16:52:42.916Z,9.50
2022-12-31T16:55:16.855Z,6.50
2022-12-31T16:57:47.551Z,9.82
2022-12-31T17:00:18.026Z,7.70
2022-12-31T17:02:58.460Z,7.10
2022-12-31T17:05:27.795Z,7.90
2022-12-31T17:07:55.094Z,7.60
2022-12-31T17:10:25.060Z,8.25
2022-12-31T17:13:27.242Z,10.23
2022-12-31T17:15:45.952Z,9.87
2022-12-31T17:18:24.243Z,6.93
2022-12-31T17:20:53.300Z,6.57
2022-12-31T17:23:25.347Z,9.48
2022-12-31T17:26:01.088Z,7.78
2022-12-31T17:28:43.341Z,7.55
2022-12-31T17:31:27.507Z,6.70
2022-12-31T17:34:04.289Z,10.00
2022-12-31T17:36:31.393Z,7.45
2022-12-31T17:39:18.044Z,9.45
2022-12-31T17:41:46.545Z,6.05
2022-12-31T17:44:29.438Z,6.43
2022-12-31T17:46:58.011Z,7.70
2022-12-31T17:49:30.963Z,4.88
2022-12-31T17:52:00.668Z,8.82
2022-12-31T17:54:27.507Z,5.47
2022-12-31T17:56:54.746Z,6.90
2022-12-31T17:59:24.569Z,5.80
2022-12-31T18:01:52.471Z,10.63
2022-12-31T18:04:20.731Z,8.10
2022-12-31T18:06:47.916Z,7.40
2022-12-31T18:09:16.435Z,5.35
2022-12-31T18:11:45.148Z,7.07
2022-12-31T18:14:16.503Z,7.43
2022-12-31T18:16:44.508Z,6.40
2022-12-31T18:19:37.890Z,5.45
2022-12-31T18:22:02.783Z,6.78
2022-12-31T18:24:29.974Z,6.70
2022-12-31T18:26:56.981Z,7.63
2022-12-31T18:29:24.534Z,7.28
2022-12-31T18:31:52.111Z,6.43
2022-12-31T18:34:19.668Z,6.13
2022-12-31T18:36:46.782Z,7.43
2022-12-31T18:39:13.751Z,7.22
2022-12-31T18:41:45.816Z,6.15
2022-12-31T18:44:14.842Z,6.57
2022-12-31T18:46:42.740Z,7.75
2022-12-31T18:49:09.563Z,7.43
2022-12-31T18:51:36.945Z,10.57
2022-12-31T18:54:04.994Z,9.55
2022-12-31T18:56:32.537Z,10.02
2022-12-31T18:58:59.843Z,8.00
2022-12-31T19:01:35.451Z,8.93
2022-12-31T19:04:05.214Z,8.20
2022-12-31T19:06:32.663Z,10.48
2022-12-31T19:09:01.124Z,7.60
2022-12-31T19:11:32.933Z,9.60
2022-12-31T19:13:59.965Z,9.87
2022-12-31T19:16:27.207Z,8.52
2022-12-31T19:18:54.279Z,7.68
2022-12-31T19:21:23.777Z,8.02
2022-12-31T19:23:51.210Z,9.63
2022-12-31T19:26:21.696Z,7.50
2022-12-31T19:28:50.388Z,8.07
2022-12-31T19:31:18.053Z,7.30
2022-12-31T19:33:45.173Z,7.93
2022-12-31T19:36:17.595Z,8.05
2022-12-31T19:38:45.368Z,7.03
2022-12-31T19:41:18.309Z,8.48
2022-12-31T19:43:45.590Z,8.95
2022-12-31T19:46:18.078Z,7.93
2022-12-31T19:48:45.597Z,7.40
2022-12-31T19:51:19.022Z,7.82
2022-12-31T19:53:47.254Z,7.55
2022-12-31T19:56:18.420Z,8.70
2022-12-31T19:58:46.162Z,12.82
2022-12-31T20:01:20.664Z,6.47
2022-12-31T20:03:48.477Z,7.70
2022-12-31T20:06:17.196Z,7.33
2022-12-31T20:08:44.265Z,9.77
2022-12-31T20:11:14.202Z,7.97
2022-12-31T20:13:41.815Z,9.23
2022-12-31T20:16:11.969Z,7.78
2022-12-31T20:18:40.877Z,8.75
2022-12-31T20:21:20.320Z,12.77
2022-12-31T20:23:48.981Z,7.37
2022-12-31T20:26:17.126Z,6.20
2022-12-31T20:28:44.008Z,8.17
2022-12-31T20:31:15.367Z,4.73
2022-12-31T20:33:42.388Z,5.72
2022-12-31T20:36:12.097Z,6.60
2022-12-31T20:38:39.029Z,6.10
2022-12-31T20:41:08.948Z,6.93
2022-12-31T20:43:36.757Z,8.20
2022-12-31T20:46:15.758Z,14.68
2022-12-31T20:48:44.234Z,7.63
2022-12-31T20:51:12.507Z,8.95
2022-12-31T20:53:39.502Z,6.47
2022-12-31T20:56:08.576Z,8.95
2022-12-31T20:58:35.912Z,8.05
2022-12-31T21:01:06.884Z,7.95
2022-12-31T21:06:25.943Z,6.55
2022-12-31T21:08:54.405Z,5.53
2022-12-31T21:11:40.082Z,5.03
2022-12-31T21:14:07.005Z,4.25
2022-12-31T21:16:34.049Z,8.30
2022-12-31T21:19:01.585Z,7.10
2022-12-31T21:21:28.723Z,6.70
2022-12-31T21:23:55.578Z,7.22
2022-12-31T21:26:22.809Z,6.35
2022-12-31T21:28:49.661Z,8.60
2022-12-31T21:31:16.732Z,5.20
2022-12-31T21:33:45.218Z,8.82
2022-12-31T21:36:13.265Z,7.07
2022-12-31T21:38:40.329Z,7.82
2022-12-31T21:41:33.219Z,7.93
2022-12-31T21:44:00.251Z,5.23
2022-12-31T21:46:27.370Z,6.20
2022-12-31T21:48:56.176Z,6.47
2022-12-31T21:51:24.056Z,6.60
2022-12-31T21:53:51.288Z,6.63
2022-12-31T21:56:21.199Z,9.20
2022-12-31T21:59:15.361Z,8.07
2022-12-31T22:02:01.162Z,6.75
2022-12-31T22:05:01.833Z,8.00
2022-12-31T22:07:15.322Z,9.07
2022-12-31T22:09:42.163Z,9.17
2022-12-31T22:12:09.171Z,10.35
2022-12-31T22:14:36.057Z,9.02
2022-12-31T22:17:03.346Z,6.90
2022-12-31T22:19:30.280Z,5.85
2022-12-31T22:21:57.481Z,9.63
2022-12-31T22:24:24.349Z,8.67
2022-12-31T22:26:53.866Z,7.73
2022-12-31T22:29:21.553Z,6.33
2022-12-31T22:31:48.573Z,9.90
2022-12-31T22:34:15.479Z,6.68
2022-12-31T22:36:42.485Z,8.07
2022-12-31T22:39:14.328Z,6.43
2022-12-31T22:42:01.398Z,8.50
2022-12-31T22:44:28.161Z,7.32
2022-12-31T22:46:56.276Z,4.50
2022-12-31T22:49:23.329Z,7.57
2022-12-31T22:51:55.741Z,7.78
2022-12-31T22:54:24.275Z,8.80
2022-12-31T22:56:51.347Z,6.88
2022-12-31T22:59:18.181Z,8.90
2022-12-31T23:01:45.244Z,65.63
2022-12-31T23:04:12.193Z,25.20
2022-12-31T23:06:45.219Z,39.15
2022-12-31T23:09:32.859Z,18.50
2022-12-31T23:12:01.493Z,14.90
2022-12-31T23:14:47.007Z,8.95
2022-12-31T23:17:36.512Z,19.60
2022-12-31T23:20:24.960Z,15.32
2022-12-31T23:23:10.449Z,10.93
2022-12-31T23:25:50.975Z,11.73
2022-12-31T23:28:21.009Z,16.15
2022-12-31T23:30:48.090Z,12.88
2022-12-31T23:33:18.379Z,18.33
2022-12-31T23:35:45.836Z,17.40
2022-12-31T23:38:13.666Z,14.73
2022-12-31T23:40:40.502Z,10.75
2022-12-31T23:43:08.687Z,12.30
2022-12-31T23:45:36.306Z,12.80
2022-12-31T23:48:04.205Z,11.30
2022-12-31T23:50:31.107Z,9.27
2022-12-31T23:52:58.205Z,9.00
2022-12-31T23:55:25.019Z,8.57
2022-12-31T23:57:52.010Z,9.68
